Time,TemperatureF,DewpointF,PressureIn,WindDirection,WindDirectionDegrees,WindSpeedMPH,WindSpeedGustMPH,Humidity,HourlyPrecipIn,Conditions,Clouds,dailyrainin,SolarRadiationWatts/m^2,SoftwareType,DateUTC
2013-08-02 00:04:00,69.0,69.0,29.83,SW,221,0.0,-999.0,100,-99.99,,,0.90,0,weatherlink.com 1.10,2013-08-02 04:04:00,
2013-08-02 00:19:00,69.0,69.0,29.84,SW,221,0.0,-999.0,100,-99.99,,,0.90,0,weatherlink.com 1.10,2013-08-02 04:19:00,
2013-08-02 00:34:00,69.0,69.0,29.83,SW,221,0.0,-999.0,100,-99.99,,,0.90,0,weatherlink.com 1.10,2013-08-02 04:34:00,
2013-08-02 00:49:00,69.0,69.0,29.83,SW,221,0.0,-999.0,100,-99.99,,,0.90,0,weatherlink.com 1.10,2013-08-02 04:49:00,
2013-08-02 01:04:00,68.9,69.0,29.83,SW,221,0.0,-999.0,100,-99.99,,,0.90,0,weatherlink.com 1.10,2013-08-02 05:04:00,
2013-08-02 01:19:00,68.8,69.0,29.82,SW,221,0.0,-999.0,100,-99.99,,,0.90,0,weatherlink.com 1.10,2013-08-02 05:19:00,
2013-08-02 01:34:00,68.6,69.0,29.82,SW,221,0.0,-999.0,100,-99.99,,,0.90,0,weatherlink.com 1.10,2013-08-02 05:34:00,
2013-08-02 01:49:00,68.6,69.0,29.81,SW,221,0.0,-999.0,100,-99.99,,,0.90,0,weatherlink.com 1.10,2013-08-02 05:49:00,
2013-08-02 02:04:00,68.6,69.0,29.81,SW,221,0.0,-999.0,100,-99.99,,,0.90,0,weatherlink.com 1.10,2013-08-02 06:04:00,
2013-08-02 02:19:00,68.5,69.0,29.81,SW,221,0.0,-999.0,100,-99.99,,,0.90,0,weatherlink.com 1.10,2013-08-02 06:19:00,
2013-08-02 02:34:00,68.4,68.0,29.81,SW,221,0.0,-999.0,100,-99.99,,,0.90,0,weatherlink.com 1.10,2013-08-02 06:34:00,
2013-08-02 02:49:00,68.3,68.0,29.80,SW,221,0.0,-999.0,100,-99.99,,,0.90,0,weatherlink.com 1.10,2013-08-02 06:49:00,
2013-08-02 03:04:00,68.3,68.0,29.81,SW,221,0.0,-999.0,100,-99.99,,,0.90,0,weatherlink.com 1.10,2013-08-02 07:04:00,
2013-08-02 03:19:00,68.3,68.0,29.81,SW,221,0.0,-999.0,100,-99.99,,,0.90,0,weatherlink.com 1.10,2013-08-02 07:19:00,
2013-08-02 03:34:00,68.4,68.0,29.81,SW,221,0.0,-999.0,100,-99.99,,,0.90,0,weatherlink.com 1.10,2013-08-02 07:34:00,
2013-08-02 03:49:00,68.6,69.0,29.81,SW,221,0.0,-999.0,100,-99.99,,,0.90,0,weatherlink.com 1.10,2013-08-02 07:49:00,
2013-08-02 04:04:00,68.7,69.0,29.81,SW,221,0.0,-999.0,100,-99.99,,,0.90,0,weatherlink.com 1.10,2013-08-02 08:04:00,
2013-08-02 04:19:00,68.7,69.0,29.81,SW,221,0.0,-999.0,100,-99.99,,,0.90,0,weatherlink.com 1.10,2013-08-02 08:19:00,
2013-08-02 04:34:00,68.7,69.0,29.82,SW,221,0.0,-999.0,100,-99.99,,,0.90,0,weatherlink.com 1.10,2013-08-02 08:34:00,
2013-08-02 04:49:00,68.7,69.0,29.82,SW,221,0.0,-999.0,100,-99.99,,,0.90,0,weatherlink.com 1.10,2013-08-02 08:49:00,
2013-08-02 05:04:00,68.6,69.0,29.82,North,351,0.0,-999.0,100,-99.99,,,0.90,0,weatherlink.com 1.10,2013-08-02 09:04:00,
2013-08-02 05:19:00,68.5,69.0,29.83,NNW,342,0.0,-999.0,100,-99.99,,,0.90,0,weatherlink.com 1.10,2013-08-02 09:19:00,
2013-08-02 05:34:00,68.4,68.0,29.84,NNW,342,0.0,-999.0,100,-99.99,,,0.90,0,weatherlink.com 1.10,2013-08-02 09:34:00,
2013-08-02 05:49:00,68.0,68.0,29.84,SW,233,0.0,-999.0,100,-99.99,,,0.90,0,weatherlink.com 1.10,2013-08-02 09:49:00,
2013-08-02 06:04:00,67.7,68.0,29.85,SW,234,0.0,-999.0,100,-99.99,,,0.90,0,weatherlink.com 1.10,2013-08-02 10:04:00,
2013-08-02 06:19:00,67.4,67.0,29.86,SW,234,0.0,-999.0,100,-99.99,,,0.90,12,weatherlink.com 1.10,2013-08-02 10:19:00,
2013-08-02 06:34:00,67.2,67.0,29.86,SW,234,0.0,-999.0,100,-99.99,,,0.90,21,weatherlink.com 1.10,2013-08-02 10:34:00,
2013-08-02 06:49:00,67.1,67.0,29.86,SW,233,0.0,-999.0,100,-99.99,,,0.90,37,weatherlink.com 1.10,2013-08-02 10:49:00,
2013-08-02 07:04:00,67.3,67.0,29.87,SW,234,0.0,-999.0,100,-99.99,,,0.90,128,weatherlink.com 1.10,2013-08-02 11:04:00,
2013-08-02 07:19:00,67.6,68.0,29.87,SW,234,0.0,-999.0,100,-99.99,,,0.90,178,weatherlink.com 1.10,2013-08-02 11:19:00,
2013-08-02 07:35:00,68.3,68.0,29.87,SW,234,0.0,-999.0,100,-99.99,,,0.90,232,weatherlink.com 1.10,2013-08-02 11:35:00,
2013-08-02 07:49:00,68.4,68.0,29.88,SW,234,0.0,-999.0,100,-99.99,,,0.90,279,weatherlink.com 1.10,2013-08-02 11:49:00,
2013-08-02 08:04:00,68.9,69.0,29.88,SW,234,0.0,-999.0,100,-99.99,,,0.90,327,weatherlink.com 1.10,2013-08-02 12:04:00,
2013-08-02 08:20:00,69.4,69.0,29.89,North,360,0.0,-999.0,98,-99.99,,,0.91,374,weatherlink.com 1.10,2013-08-02 12:20:00,
2013-08-02 08:35:00,70.2,69.0,29.89,NW,322,0.0,-999.0,94,-99.99,,,0.91,420,weatherlink.com 1.10,2013-08-02 12:35:00,
2013-08-02 08:50:00,70.8,68.0,29.89,NW,321,0.0,-999.0,91,-99.99,,,0.00,466,weatherlink.com 1.10,2013-08-02 12:50:00,
2013-08-02 09:05:00,71.6,68.0,29.89,NNW,348,0.0,-999.0,89,-99.99,,,0.00,517,weatherlink.com 1.10,2013-08-02 13:05:00,
2013-08-02 09:20:00,72.6,68.0,29.90,NNW,348,0.0,-999.0,86,-99.99,,,0.00,561,weatherlink.com 1.10,2013-08-02 13:20:00,
2013-08-02 09:35:00,73.8,69.0,29.90,NNW,348,0.0,-999.0,84,-99.99,,,0.00,605,weatherlink.com 1.10,2013-08-02 13:35:00,
2013-08-02 09:50:00,75.3,69.0,29.91,WSW,238,1.0,-999.0,80,-99.99,,,0.00,647,weatherlink.com 1.10,2013-08-02 13:50:00,
2013-08-02 10:05:00,75.5,67.0,29.91,SSE,166,0.0,-999.0,76,-99.99,,,0.00,684,weatherlink.com 1.10,2013-08-02 14:05:00,
2013-08-02 10:20:00,76.7,68.0,29.91,SSE,166,1.0,-999.0,74,-99.99,,,0.00,721,weatherlink.com 1.10,2013-08-02 14:20:00,
2013-08-02 10:35:00,77.9,67.0,29.91,SSE,166,0.0,-999.0,69,-99.99,,,0.00,759,weatherlink.com 1.10,2013-08-02 14:35:00,
2013-08-02 10:50:00,77.8,66.0,29.92,West,279,0.0,-999.0,68,-99.99,,,0.00,786,weatherlink.com 1.10,2013-08-02 14:50:00,
2013-08-02 11:05:00,78.7,65.0,29.92,North,350,0.0,-999.0,64,-99.99,,,0.00,817,weatherlink.com 1.10,2013-08-02 15:05:00,
2013-08-02 11:20:00,79.8,67.0,29.92,SW,225,0.0,-999.0,64,-99.99,,,0.00,837,weatherlink.com 1.10,2013-08-02 15:20:00,
2013-08-02 11:35:00,80.2,67.0,29.91,SW,225,0.0,-999.0,64,-99.99,,,0.00,870,weatherlink.com 1.10,2013-08-02 15:35:00,
2013-08-02 11:51:00,81.2,66.0,29.91,SW,215,0.0,-999.0,60,-99.99,,,0.00,204,weatherlink.com 1.10,2013-08-02 15:51:00,
2013-08-02 12:05:00,80.3,67.0,29.91,NNW,344,3.0,-999.0,64,-99.99,,,0.00,984,weatherlink.com 1.10,2013-08-02 16:05:00,
2013-08-02 12:20:00,81.1,66.0,29.91,SW,223,2.0,-999.0,60,-99.99,,,0.00,976,weatherlink.com 1.10,2013-08-02 16:20:00,
2013-08-02 12:35:00,81.0,66.0,29.91,SW,233,0.0,-999.0,61,-99.99,,,0.00,206,weatherlink.com 1.10,2013-08-02 16:35:00,
2013-08-02 12:51:00,81.5,67.0,29.91,SSW,198,1.0,-999.0,61,-99.99,,,0.00,962,weatherlink.com 1.10,2013-08-02 16:51:00,
2013-08-02 13:06:00,81.9,67.0,29.91,NNW,332,4.0,-999.0,61,-99.99,,,0.00,984,weatherlink.com 1.10,2013-08-02 17:06:00,
2013-08-02 13:21:00,82.3,67.0,29.90,WNW,283,0.0,-999.0,60,-99.99,,,0.00,970,weatherlink.com 1.10,2013-08-02 17:21:00,
2013-08-02 13:36:00,82.3,67.0,29.90,NNW,348,0.0,-999.0,60,-99.99,,,0.00,686,weatherlink.com 1.10,2013-08-02 17:36:00,
2013-08-02 13:51:00,82.6,66.0,29.89,WNW,282,0.0,-999.0,57,-99.99,,,0.00,1071,weatherlink.com 1.10,2013-08-02 17:51:00,
2013-08-02 14:06:00,82.9,66.0,29.89,West,275,0.0,-999.0,57,-99.99,,,0.00,861,weatherlink.com 1.10,2013-08-02 18:06:00,
2013-08-02 14:21:00,83.3,66.0,29.89,NNW,345,2.0,-999.0,56,-99.99,,,0.00,860,weatherlink.com 1.10,2013-08-02 18:21:00,
2013-08-02 14:36:00,82.9,67.0,29.89,West,275,2.0,-999.0,58,-99.99,,,0.00,886,weatherlink.com 1.10,2013-08-02 18:36:00,
2013-08-02 14:51:00,84.2,66.0,29.89,South,184,1.0,-999.0,55,-99.99,,,0.00,874,weatherlink.com 1.10,2013-08-02 18:51:00,
2013-08-02 15:06:00,85.7,67.0,29.88,North,355,2.0,-999.0,53,-99.99,,,0.00,295,weatherlink.com 1.10,2013-08-02 19:06:00,
2013-08-02 15:21:00,84.5,67.0,29.88,NNW,343,0.0,-999.0,56,-99.99,,,0.00,805,weatherlink.com 1.10,2013-08-02 19:21:00,
2013-08-02 15:36:00,84.5,66.0,29.88,North,355,2.0,-999.0,54,-99.99,,,0.00,789,weatherlink.com 1.10,2013-08-02 19:36:00,
2013-08-02 15:51:00,84.6,66.0,29.88,WSW,242,1.0,-999.0,54,-99.99,,,0.00,754,weatherlink.com 1.10,2013-08-02 19:51:00,
2013-08-02 16:06:00,83.9,66.0,29.88,WNW,300,3.0,-999.0,55,-99.99,,,0.00,167,weatherlink.com 1.10,2013-08-02 20:06:00,
2013-08-02 16:21:00,84.4,66.0,29.88,West,271,2.0,-999.0,54,-99.99,,,0.00,601,weatherlink.com 1.10,2013-08-02 20:21:00,
2013-08-02 16:36:00,84.4,65.0,29.87,South,185,1.0,-999.0,53,-99.99,,,0.00,232,weatherlink.com 1.10,2013-08-02 20:36:00,
2013-08-02 16:51:00,84.3,66.0,29.88,SSW,193,2.0,-999.0,54,-99.99,,,0.00,209,weatherlink.com 1.10,2013-08-02 20:51:00,
2013-08-02 17:21:00,83.0,67.0,29.88,WSW,257,0.0,-999.0,59,-99.99,,,0.00,455,weatherlink.com 1.10,2013-08-02 21:21:00,
2013-08-02 17:51:00,82.3,67.0,29.89,SW,215,0.0,-999.0,61,-99.99,,,0.00,169,weatherlink.com 1.10,2013-08-02 21:51:00,
2013-08-02 18:21:00,81.1,68.0,29.87,ESE,117,0.0,-999.0,64,-99.99,,,0.00,40,weatherlink.com 1.10,2013-08-02 22:21:00,
2013-08-02 18:36:00,80.7,67.0,29.86,SE,142,0.0,-999.0,64,-99.99,,,0.00,123,weatherlink.com 1.10,2013-08-02 22:36:00,
2013-08-02 19:21:00,79.8,67.0,29.86,SW,227,0.0,-999.0,64,-99.99,,,0.00,19,weatherlink.com 1.10,2013-08-02 23:21:00,
2013-08-02 19:36:00,79.0,67.0,29.87,WSW,238,0.0,-999.0,66,-99.99,,,0.00,19,weatherlink.com 1.10,2013-08-02 23:36:00,
2013-08-02 19:51:00,78.5,67.0,29.88,SSW,211,0.0,-999.0,68,-99.99,,,0.00,5,weatherlink.com 1.10,2013-08-02 23:51:00,
2013-08-02 20:06:00,77.7,67.0,29.88,SSW,211,0.0,-999.0,69,-99.99,,,0.00,0,weatherlink.com 1.10,2013-08-03 00:06:00,
2013-08-02 20:21:00,77.1,67.0,29.89,SSE,154,0.0,-999.0,70,-99.99,,,0.00,0,weatherlink.com 1.10,2013-08-03 00:21:00,
2013-08-02 20:36:00,76.6,67.0,29.89,SSE,159,0.0,-999.0,71,-99.99,,,0.00,0,weatherlink.com 1.10,2013-08-03 00:36:00,
2013-08-02 20:51:00,76.0,67.0,29.90,South,190,0.0,-999.0,73,-99.99,,,0.00,0,weatherlink.com 1.10,2013-08-03 00:51:00,
2013-08-02 21:06:00,75.4,67.0,29.90,South,190,0.0,-999.0,74,-99.99,,,0.00,0,weatherlink.com 1.10,2013-08-03 01:06:00,
2013-08-02 21:21:00,75.0,67.0,29.91,South,190,0.0,-999.0,76,-99.99,,,0.00,0,weatherlink.com 1.10,2013-08-03 01:21:00,
2013-08-02 21:36:00,74.6,67.0,29.91,South,190,0.0,-999.0,76,-99.99,,,0.00,0,weatherlink.com 1.10,2013-08-03 01:36:00,
2013-08-02 21:51:00,74.2,67.0,29.91,South,190,0.0,-999.0,77,-99.99,,,0.00,0,weatherlink.com 1.10,2013-08-03 01:51:00,
2013-08-02 22:06:00,73.9,67.0,29.91,South,190,0.0,-999.0,78,-99.99,,,0.00,0,weatherlink.com 1.10,2013-08-03 02:06:00,
2013-08-02 22:21:00,73.7,67.0,29.92,WSW,247,0.0,-999.0,79,-99.99,,,0.00,0,weatherlink.com 1.10,2013-08-03 02:21:00,
2013-08-02 22:36:00,73.3,66.0,29.92,WSW,247,0.0,-999.0,79,-99.99,,,0.00,0,weatherlink.com 1.10,2013-08-03 02:36:00,
2013-08-02 22:51:00,73.0,67.0,29.92,WSW,247,0.0,-999.0,80,-99.99,,,0.00,0,weatherlink.com 1.10,2013-08-03 02:51:00,
2013-08-02 23:06:00,72.7,67.0,29.92,WSW,252,0.0,-999.0,81,-99.99,,,0.00,0,weatherlink.com 1.10,2013-08-03 03:06:00,
2013-08-02 23:21:00,72.4,66.0,29.92,SSW,205,0.0,-999.0,81,-99.99,,,0.00,0,weatherlink.com 1.10,2013-08-03 03:21:00,
2013-08-02 23:36:00,72.2,66.0,29.93,SSW,205,0.0,-999.0,82,-99.99,,,0.00,0,weatherlink.com 1.10,2013-08-03 03:36:00,
2013-08-02 23:51:00,71.8,66.0,29.93,SSW,205,0.0,-999.0,83,-99.99,,,0.00,0,weatherlink.com 1.10,2013-08-03 03:51:00,